createdAt,value
2018-05-04T00:00:19.275Z,7.50
2018-05-04T00:02:55.390Z,7.40
2018-05-04T00:05:30.129Z,7.40
2018-05-04T00:08:07.312Z,7.40
2018-05-04T00:10:47.502Z,7.40
2018-05-04T00:13:23.536Z,7.30
2018-05-04T00:15:58.776Z,7.30
2018-05-04T00:18:35.014Z,7.20
2018-05-04T00:23:49.301Z,7.20
2018-05-04T00:26:25.264Z,7.20
2018-05-04T00:29:01.598Z,7.10
2018-05-04T00:31:39.722Z,7.10
2018-05-04T00:34:19.828Z,7.10
2018-05-04T00:36:56.008Z,7.10
2018-05-04T00:39:31.142Z,7.00
2018-05-04T00:42:04.888Z,7.00
2018-05-04T00:44:40.175Z,7.00
2018-05-04T00:47:17.975Z,7.00
2018-05-04T00:49:57.087Z,7.00
2018-05-04T00:52:31.699Z,7.00
2018-05-04T00:55:06.747Z,6.90
2018-05-04T01:09:50.776Z,6.90
2018-05-04T01:12:26.523Z,6.80
2018-05-04T01:15:01.443Z,6.80
2018-05-04T01:17:38.662Z,6.80
2018-05-04T01:20:15.014Z,6.70
2018-05-04T01:22:48.916Z,6.70
2018-05-04T01:25:29.388Z,6.60
2018-05-04T01:28:03.112Z,6.60
2018-05-04T01:30:36.848Z,6.60
2018-05-04T01:33:10.952Z,6.60
2018-05-04T01:35:44.527Z,6.50
2018-05-04T01:38:20.091Z,6.40
2018-05-04T01:40:54.508Z,6.40
2018-05-04T01:43:47.227Z,6.40
2018-05-04T01:46:22.061Z,6.40
2018-05-04T01:48:56.703Z,6.40
2018-05-04T01:51:33.131Z,6.30
2018-05-04T01:54:07.705Z,6.30
2018-05-04T01:56:45.552Z,6.30
2018-05-04T01:59:20.856Z,6.20
2018-05-04T02:01:56.014Z,6.20
2018-05-04T02:04:30.679Z,6.10
2018-05-04T02:07:05.374Z,6.10
2018-05-04T02:09:40.635Z,6.00
2018-05-04T02:12:15.664Z,6.00
2018-05-04T02:14:49.428Z,6.00
2018-05-04T02:17:23.659Z,5.90
2018-05-04T02:19:58.335Z,5.80
2018-05-04T02:22:33.335Z,5.80
2018-05-04T02:25:07.395Z,5.80
2018-05-04T02:27:41.989Z,5.80
2018-05-04T02:30:18.366Z,5.90
2018-05-04T02:32:56.499Z,5.90
2018-05-04T02:35:37.284Z,5.90
2018-05-04T02:38:17.530Z,6.00
2018-05-04T02:40:52.585Z,6.00
2018-05-04T02:43:29.481Z,6.00
2018-05-04T02:46:04.178Z,6.00
2018-05-04T02:48:42.015Z,5.90
2018-05-04T02:51:17.051Z,6.00
2018-05-04T02:53:51.850Z,6.00
2018-05-04T02:56:29.777Z,6.00
2018-05-04T02:59:05.750Z,6.00
2018-05-04T03:01:39.819Z,6.00
2018-05-04T03:04:13.743Z,6.00
2018-05-04T03:06:47.634Z,6.00
2018-05-04T03:09:22.186Z,5.90
2018-05-04T03:11:59.377Z,5.90
2018-05-04T03:14:34.389Z,5.80
2018-05-04T03:17:12.656Z,5.80
2018-05-04T03:19:49.645Z,5.80
2018-05-04T03:22:24.324Z,5.70
2018-05-04T03:25:01.394Z,5.60
2018-05-04T03:27:36.016Z,5.60
2018-05-04T03:30:14.737Z,5.60
2018-05-04T03:32:54.825Z,5.50
2018-05-04T03:35:31.923Z,5.50
2018-05-04T03:38:06.767Z,5.40
2018-05-04T03:40:42.189Z,5.40
2018-05-04T03:43:16.903Z,5.30
2018-05-04T03:46:08.604Z,5.20
2018-05-04T03:48:43.523Z,5.20
2018-05-04T03:51:18.892Z,5.20
2018-05-04T03:53:52.755Z,5.20
2018-05-04T03:56:26.679Z,5.20
2018-05-04T03:59:14.058Z,5.20
2018-05-04T04:02:00.353Z,5.20
2018-05-04T04:04:35.358Z,5.20
2018-05-04T04:07:09.656Z,5.10
2018-05-04T04:09:44.658Z,5.10
2018-05-04T04:12:18.679Z,5.10
2018-05-04T04:14:53.254Z,5.20
2018-05-04T04:17:26.883Z,5.20
2018-05-04T04:20:00.882Z,5.20
2018-05-04T04:22:36.463Z,5.20
2018-05-04T04:28:11.656Z,5.10
2018-05-04T04:30:49.519Z,5.10
2018-05-04T04:36:35.019Z,5.20
2018-05-04T04:39:12.299Z,5.30
2018-05-04T04:41:47.394Z,5.40
2018-05-04T04:44:30.075Z,5.40
2018-05-04T04:47:05.372Z,5.50
2018-05-04T04:49:40.389Z,5.50
2018-05-04T04:52:15.741Z,5.60
2018-05-04T04:54:50.224Z,5.60
2018-05-04T04:57:25.467Z,5.70
2018-05-04T05:00:02.596Z,5.70
2018-05-04T05:02:36.417Z,5.80
2018-05-04T05:05:13.211Z,5.90
2018-05-04T05:07:48.663Z,6.00
2018-05-04T05:10:23.357Z,6.10
2018-05-04T05:12:59.076Z,6.10
2018-05-04T05:15:32.714Z,6.20
2018-05-04T05:18:07.913Z,6.30
2018-05-04T05:20:46.002Z,6.40
2018-05-04T05:23:20.344Z,6.40
2018-05-04T05:26:05.067Z,6.50
2018-05-04T05:28:38.775Z,6.60
2018-05-04T05:31:12.441Z,6.70
2018-05-04T05:33:47.428Z,6.80
2018-05-04T05:36:23.817Z,6.90
2018-05-04T05:39:08.982Z,7.00
2018-05-04T05:41:51.338Z,7.10
2018-05-04T05:44:27.281Z,7.10
2018-05-04T05:47:01.915Z,7.20
2018-05-04T05:49:37.199Z,7.30
2018-05-04T05:52:11.849Z,7.40
2018-05-04T05:54:45.678Z,7.50
2018-05-04T05:57:21.199Z,7.60
2018-05-04T05:59:55.547Z,7.70
2018-05-04T06:02:29.357Z,7.80
2018-05-04T06:05:03.122Z,7.90
2018-05-04T06:07:38.102Z,8.10
2018-05-04T06:10:11.763Z,8.20
2018-05-04T06:12:46.490Z,8.30
2018-05-04T06:15:20.496Z,8.40
2018-05-04T06:17:54.356Z,8.50
2018-05-04T06:20:28.294Z,8.70
2018-05-04T06:23:04.917Z,8.80
2018-05-04T06:25:38.630Z,8.90
2018-05-04T06:28:13.686Z,9.00
2018-05-04T06:30:47.478Z,9.20
2018-05-04T06:33:21.179Z,9.30
2018-05-04T06:35:55.129Z,9.40
2018-05-04T06:38:28.895Z,9.50
2018-05-04T06:41:02.677Z,9.60
2018-05-04T06:43:36.530Z,9.80
2018-05-04T06:46:10.310Z,9.90
2018-05-04T06:48:44.736Z,10.00
2018-05-04T06:51:19.359Z,10.20
2018-05-04T06:53:53.851Z,10.40
2018-05-04T06:56:28.475Z,10.50
2018-05-04T06:59:02.323Z,10.50
2018-05-04T07:01:36.030Z,10.60
2018-05-04T07:04:09.840Z,10.80
2018-05-04T07:06:44.970Z,11.10
2018-05-04T07:09:19.451Z,11.10
2018-05-04T07:11:54.854Z,11.20
2018-05-04T07:14:28.471Z,11.40
2018-05-04T07:17:02.304Z,11.40
2018-05-04T07:19:36.153Z,11.50
2018-05-04T07:22:10.449Z,11.60
2018-05-04T07:24:44.148Z,11.80
2018-05-04T07:27:18.005Z,11.90
2018-05-04T07:29:51.857Z,12.00
2018-05-04T07:32:25.663Z,12.10
2018-05-04T07:34:59.377Z,12.30
2018-05-04T07:37:34.086Z,12.40
2018-05-04T07:40:08.540Z,12.70
2018-05-04T07:42:42.125Z,12.70
2018-05-04T07:45:16.074Z,12.80
2018-05-04T07:47:50.483Z,12.90
2018-05-04T07:50:24.335Z,13.00
2018-05-04T07:52:59.775Z,13.00
2018-05-04T07:55:33.541Z,13.00
2018-05-04T07:58:07.281Z,13.00
2018-05-04T08:00:41.773Z,13.30
2018-05-04T08:03:17.289Z,13.40
2018-05-04T08:05:51.899Z,13.40
2018-05-04T08:08:27.267Z,13.50
2018-05-04T08:11:00.944Z,13.60
2018-05-04T08:13:34.679Z,13.80
2018-05-04T08:16:08.483Z,13.80
2018-05-04T08:18:43.364Z,13.90
2018-05-04T08:21:17.584Z,14.00
2018-05-04T08:23:51.336Z,14.10
2018-05-04T08:26:25.669Z,14.10
2018-05-04T08:28:59.530Z,14.10
2018-05-04T08:31:33.658Z,14.00
2018-05-04T08:34:07.325Z,14.00
2018-05-04T08:36:40.995Z,14.20
2018-05-04T08:39:14.622Z,14.40
2018-05-04T08:41:49.151Z,14.60
2018-05-04T08:44:23.688Z,14.60
2018-05-04T08:46:57.594Z,14.70
2018-05-04T08:49:31.363Z,15.00
2018-05-04T08:52:05.816Z,15.20
2018-05-04T08:54:39.693Z,15.20
2018-05-04T08:57:14.275Z,15.30
2018-05-04T08:59:47.916Z,15.30
2018-05-04T09:02:21.605Z,15.40
2018-05-04T09:04:56.144Z,15.50
2018-05-04T09:07:29.988Z,15.50
2018-05-04T09:10:03.719Z,15.50
2018-05-04T09:12:37.507Z,15.50
2018-05-04T09:15:11.272Z,15.50
2018-05-04T09:17:45.244Z,15.50
2018-05-04T09:20:19.708Z,15.50
2018-05-04T09:22:53.560Z,15.50
2018-05-04T09:25:27.321Z,15.70
2018-05-04T09:28:01.099Z,15.70
2018-05-04T09:30:34.824Z,15.80
2018-05-04T09:33:08.570Z,15.80
2018-05-04T09:35:42.423Z,15.80
2018-05-04T09:38:16.107Z,15.80
2018-05-04T09:40:49.861Z,15.80
2018-05-04T09:43:24.484Z,15.80
2018-05-04T09:45:58.079Z,15.80
2018-05-04T09:48:31.884Z,15.70
2018-05-04T09:51:06.481Z,15.80
2018-05-04T09:53:40.142Z,15.90
2018-05-04T09:56:14.861Z,16.20
2018-05-04T09:58:48.443Z,16.40
2018-05-04T10:01:22.269Z,16.40
2018-05-04T10:03:56.029Z,16.60
2018-05-04T10:06:29.781Z,16.60
2018-05-04T10:09:04.634Z,16.70
2018-05-04T10:11:39.970Z,17.00
2018-05-04T10:14:14.756Z,17.20
2018-05-04T10:16:48.694Z,17.20
2018-05-04T10:19:22.510Z,17.50
2018-05-04T10:21:56.958Z,17.80
2018-05-04T10:24:32.878Z,17.70
2018-05-04T10:27:07.507Z,17.70
2018-05-04T10:29:41.341Z,17.40
2018-05-04T10:32:17.440Z,17.20
2018-05-04T10:34:52.197Z,17.10
2018-05-04T10:37:26.440Z,17.20
2018-05-04T10:40:00.663Z,17.30
2018-05-04T10:42:34.491Z,17.20
2018-05-04T10:45:09.254Z,17.20
2018-05-04T10:47:43.045Z,17.00
2018-05-04T10:50:17.680Z,16.80
2018-05-04T10:52:54.970Z,16.90
2018-05-04T10:55:29.620Z,16.90
2018-05-04T10:58:04.248Z,17.10
2018-05-04T11:00:38.473Z,17.20
2018-05-04T11:03:12.264Z,17.20
2018-05-04T11:05:46.828Z,17.50
2018-05-04T11:08:22.411Z,17.80
2018-05-04T11:11:00.536Z,17.80
2018-05-04T11:13:36.793Z,17.80
2018-05-04T11:16:14.640Z,17.80
2018-05-04T11:18:48.716Z,17.40
2018-05-04T11:21:23.603Z,17.10
2018-05-04T11:23:57.975Z,17.00
2018-05-04T11:26:32.443Z,17.20
2018-05-04T11:29:06.892Z,17.30
2018-05-04T11:31:42.487Z,17.50
2018-05-04T11:34:19.138Z,17.70
2018-05-04T11:36:52.923Z,17.70
2018-05-04T11:39:26.580Z,17.90
2018-05-04T11:42:00.816Z,18.20
2018-05-04T11:44:34.700Z,18.30
2018-05-04T11:47:09.416Z,18.10
2018-05-04T11:49:43.906Z,18.40
2018-05-04T11:52:18.763Z,18.80
2018-05-04T11:54:55.331Z,19.20
2018-05-04T11:57:30.903Z,19.40
2018-05-04T12:03:09.336Z,19.40
2018-05-04T12:05:44.272Z,18.90
2018-05-04T12:08:20.660Z,19.10
2018-05-04T12:10:56.254Z,19.30
2018-05-04T12:13:29.999Z,19.40
2018-05-04T12:16:03.708Z,19.30
2018-05-04T12:18:38.190Z,19.20
2018-05-04T12:21:12.448Z,19.60
2018-05-04T12:23:46.793Z,20.40
2018-05-04T12:26:20.558Z,21.20
2018-05-04T12:28:54.369Z,22.20
2018-05-04T12:31:28.144Z,23.30
2018-05-04T12:34:02.111Z,23.80
2018-05-04T12:36:35.993Z,24.30
2018-05-04T12:39:09.662Z,24.60
2018-05-04T12:41:44.287Z,23.40
2018-05-04T12:44:22.933Z,23.40
2018-05-04T12:46:58.324Z,23.40
2018-05-04T12:49:32.023Z,24.40
2018-05-04T12:52:07.189Z,24.80
2018-05-04T12:54:41.957Z,25.50
2018-05-04T12:57:16.724Z,25.60
2018-05-04T12:59:50.685Z,25.60
2018-05-04T13:02:24.607Z,25.80
2018-05-04T13:04:59.086Z,26.80
2018-05-04T13:07:34.844Z,26.70
2018-05-04T13:10:08.564Z,27.00
2018-05-04T13:12:43.227Z,27.00
2018-05-04T13:15:18.188Z,27.80
2018-05-04T13:17:52.793Z,28.40
2018-05-04T13:20:28.428Z,27.60
2018-05-04T13:23:05.354Z,27.40
2018-05-04T13:25:39.211Z,28.20
2018-05-04T13:28:12.991Z,27.90
2018-05-04T13:30:48.073Z,28.60
2018-05-04T13:33:21.718Z,29.80
2018-05-04T13:35:55.505Z,30.60
2018-05-04T13:38:30.095Z,30.60
2018-05-04T13:41:03.869Z,31.00
2018-05-04T13:43:38.855Z,30.50
2018-05-04T13:46:13.356Z,30.30
2018-05-04T13:48:47.763Z,30.30
2018-05-04T13:51:22.699Z,30.50
2018-05-04T13:53:57.254Z,29.70
2018-05-04T13:56:31.958Z,29.70
2018-05-04T13:59:05.654Z,29.80
2018-05-04T14:01:40.223Z,30.30
2018-05-04T14:04:15.688Z,30.90
2018-05-04T14:06:49.380Z,31.40
2018-05-04T14:09:25.992Z,31.80
2018-05-04T14:12:02.460Z,33.10
2018-05-04T14:14:36.808Z,32.00
2018-05-04T14:17:11.331Z,32.10
2018-05-04T14:19:45.758Z,32.50
2018-05-04T14:22:19.815Z,32.50
2018-05-04T14:24:54.026Z,32.40
2018-05-04T14:27:29.289Z,34.90
2018-05-04T14:30:06.024Z,36.20
2018-05-04T14:32:40.738Z,36.10
2018-05-04T14:35:16.058Z,37.30
2018-05-04T14:37:50.591Z,36.90
2018-05-04T14:40:24.946Z,35.50
2018-05-04T14:42:59.706Z,35.00
2018-05-04T14:45:34.303Z,34.70
2018-05-04T14:48:08.327Z,34.60
2018-05-04T14:50:45.447Z,34.90
2018-05-04T14:53:19.623Z,35.60
2018-05-04T14:55:56.008Z,35.90
2018-05-04T14:58:30.082Z,35.90
2018-05-04T15:01:06.419Z,35.60
2018-05-04T15:03:42.212Z,35.90
2018-05-04T15:06:17.553Z,35.70
2018-05-04T15:08:52.013Z,35.90
2018-05-04T15:11:26.204Z,36.00
2018-05-04T15:14:00.700Z,37.20
2018-05-04T15:16:34.392Z,38.10
2018-05-04T15:19:13.334Z,37.20
2018-05-04T15:21:47.530Z,36.80
2018-05-04T15:24:22.882Z,36.20
2018-05-04T15:26:57.260Z,36.00
2018-05-04T15:29:32.511Z,36.90
2018-05-04T15:32:06.306Z,37.90
2018-05-04T15:34:40.021Z,37.40
2018-05-04T15:37:13.887Z,37.50
2018-05-04T15:39:47.649Z,38.80
2018-05-04T15:42:21.246Z,39.60
2018-05-04T15:44:54.965Z,39.70
2018-05-04T15:47:28.632Z,39.30
2018-05-04T15:50:10.219Z,39.00
2018-05-04T15:52:45.042Z,36.90
2018-05-04T15:55:19.509Z,36.80
2018-05-04T15:57:53.631Z,36.20
2018-05-04T16:00:27.324Z,36.50
2018-05-04T16:03:03.107Z,38.80
2018-05-04T16:05:39.056Z,39.90
2018-05-04T16:08:12.876Z,39.90
2018-05-04T16:10:47.573Z,40.20
2018-05-04T16:13:22.884Z,39.90
2018-05-04T16:15:56.603Z,39.80
2018-05-04T16:18:30.365Z,39.50
2018-05-04T16:21:04.152Z,39.20
2018-05-04T16:23:37.902Z,40.00
2018-05-04T16:26:11.710Z,39.60
2018-05-04T16:28:45.490Z,38.80
2018-05-04T16:31:19.261Z,38.40
2018-05-04T16:33:53.035Z,38.50
2018-05-04T16:36:26.993Z,39.20
2018-05-04T16:39:01.319Z,39.50
2018-05-04T16:41:35.172Z,39.20
2018-05-04T16:44:08.939Z,39.40
2018-05-04T16:46:48.317Z,39.00
2018-05-04T16:49:26.016Z,39.60
2018-05-04T16:51:59.567Z,40.10
2018-05-04T16:54:34.420Z,39.90
2018-05-04T16:57:08.239Z,39.40
2018-05-04T16:59:42.049Z,39.30
2018-05-04T17:02:15.811Z,38.70
2018-05-04T17:04:50.272Z,37.50
2018-05-04T17:07:24.034Z,37.50
2018-05-04T17:09:57.766Z,37.40
2018-05-04T17:12:32.292Z,39.20
2018-05-04T17:15:05.946Z,39.10
2018-05-04T17:17:39.603Z,39.40
2018-05-04T17:20:14.368Z,38.80
2018-05-04T17:22:48.738Z,37.00
2018-05-04T17:25:22.676Z,37.00
2018-05-04T17:27:57.282Z,37.10
2018-05-04T17:30:31.340Z,37.00
2018-05-04T17:33:05.881Z,36.60
2018-05-04T17:35:44.113Z,35.60
2018-05-04T17:38:18.306Z,35.50
2018-05-04T17:40:51.895Z,34.30
2018-05-04T17:43:26.445Z,31.40
2018-05-04T17:46:00.947Z,31.30
2018-05-04T17:48:36.619Z,28.90
2018-05-04T17:51:14.477Z,26.70
2018-05-04T17:53:48.186Z,25.30
2018-05-04T17:56:22.727Z,23.50
2018-05-04T17:58:57.616Z,23.50
2018-05-04T18:01:31.463Z,23.00
2018-05-04T18:04:05.070Z,22.40
2018-05-04T18:06:45.067Z,21.90
2018-05-04T18:09:20.527Z,21.40
2018-05-04T18:11:56.758Z,21.10
2018-05-04T18:14:31.279Z,20.80
2018-05-04T18:17:04.943Z,20.70
2018-05-04T18:19:38.737Z,20.40
2018-05-04T18:22:12.515Z,20.00
2018-05-04T18:24:46.423Z,19.80
2018-05-04T18:27:20.148Z,19.60
2018-05-04T18:29:53.982Z,19.40
2018-05-04T18:32:27.743Z,19.20
2018-05-04T18:35:01.368Z,19.10
2018-05-04T18:37:35.108Z,18.90
2018-05-04T18:40:09.203Z,18.70
2018-05-04T18:42:48.005Z,18.50
2018-05-04T18:45:21.691Z,18.30
2018-05-04T18:47:55.465Z,18.10
2018-05-04T18:50:29.235Z,17.80
2018-05-04T18:53:02.947Z,17.60
2018-05-04T18:55:37.522Z,17.20
2018-05-04T18:58:11.925Z,17.10
2018-05-04T19:00:45.756Z,17.10
2018-05-04T19:03:21.416Z,17.00
2018-05-04T19:05:55.147Z,16.90
2018-05-04T19:08:28.924Z,16.80
2018-05-04T19:11:03.575Z,16.60
2018-05-04T19:13:37.140Z,16.50
2018-05-04T19:16:10.842Z,16.40
2018-05-04T19:18:44.673Z,16.20
2018-05-04T19:21:18.525Z,16.00
2018-05-04T19:23:54.128Z,15.90
2018-05-04T19:26:28.766Z,15.80
2018-05-04T19:29:02.415Z,15.60
2018-05-04T19:31:37.943Z,15.50
2018-05-04T19:34:13.119Z,15.40
2018-05-04T19:36:47.922Z,15.40
2018-05-04T19:39:21.547Z,15.20
2018-05-04T19:41:55.981Z,15.00
2018-05-04T19:44:30.772Z,15.00
2018-05-04T19:47:04.475Z,14.90
2018-05-04T19:49:38.502Z,14.80
2018-05-04T19:52:12.351Z,14.70
2018-05-04T19:54:46.153Z,14.60
2018-05-04T19:57:19.919Z,14.50
2018-05-04T19:59:53.681Z,14.40
2018-05-04T20:02:30.923Z,14.30
2018-05-04T20:05:07.210Z,14.20
2018-05-04T20:07:41.374Z,14.20
2018-05-04T20:10:16.859Z,14.10
2018-05-04T20:12:51.510Z,14.10
2018-05-04T20:15:26.854Z,14.00
2018-05-04T20:18:00.456Z,14.00
2018-05-04T20:20:34.636Z,13.90
2018-05-04T20:23:08.267Z,13.80
2018-05-04T20:25:43.170Z,13.80
2018-05-04T20:28:16.944Z,13.80
2018-05-04T20:30:51.510Z,13.60
2018-05-04T20:33:25.991Z,13.50
2018-05-04T20:35:59.847Z,13.50
2018-05-04T20:38:34.227Z,13.50
2018-05-04T20:43:09.994Z,13.30
2018-05-04T20:45:46.840Z,13.30
2018-05-04T20:48:21.429Z,13.20
2018-05-04T20:50:58.331Z,13.20
2018-05-04T20:53:33.617Z,13.00
2018-05-04T20:56:08.679Z,13.00
2018-05-04T20:58:44.089Z,13.00
2018-05-04T21:01:18.232Z,12.90
2018-05-04T21:03:53.316Z,12.80
2018-05-04T21:06:28.026Z,12.60
2018-05-04T21:09:02.270Z,12.60
2018-05-04T21:11:37.918Z,12.60
2018-05-04T21:14:16.539Z,12.50
2018-05-04T21:16:51.566Z,12.50
2018-05-04T21:19:25.303Z,12.50
2018-05-04T21:21:59.329Z,12.50
2018-05-04T21:24:34.230Z,12.50
2018-05-04T21:27:09.708Z,12.50
2018-05-04T21:29:44.443Z,12.50
2018-05-04T21:32:20.134Z,12.50
2018-05-04T21:34:54.743Z,12.50
2018-05-04T21:37:28.446Z,12.50
2018-05-04T21:40:02.239Z,12.40
2018-05-04T21:42:36.811Z,12.30
2018-05-04T21:45:10.595Z,12.30
2018-05-04T21:47:44.970Z,12.30
2018-05-04T21:50:18.796Z,12.30
2018-05-04T21:52:52.372Z,12.20
2018-05-04T21:55:28.630Z,12.10
2018-05-04T21:58:04.172Z,12.10
2018-05-04T22:00:38.717Z,12.10
2018-05-04T22:03:12.940Z,12.00
2018-05-04T22:05:48.273Z,11.90
2018-05-04T22:08:22.464Z,11.90
2018-05-04T22:10:57.026Z,11.90
2018-05-04T22:13:31.408Z,11.90
2018-05-04T22:16:05.075Z,11.80
2018-05-04T22:18:38.737Z,11.80
2018-05-04T22:21:12.414Z,11.70
2018-05-04T22:23:46.122Z,11.70
2018-05-04T22:26:20.312Z,11.60
2018-05-04T22:28:53.930Z,11.50
2018-05-04T22:31:28.056Z,11.50
2018-05-04T22:34:02.291Z,11.40
2018-05-04T22:36:37.920Z,11.40
2018-05-04T22:39:12.286Z,11.40
2018-05-04T22:44:50.843Z,11.20
2018-05-04T22:47:24.691Z,11.20
2018-05-04T22:50:00.420Z,11.20
2018-05-04T22:55:54.746Z,11.10
2018-05-04T22:58:28.500Z,11.00
2018-05-04T23:01:02.249Z,11.00
2018-05-04T23:03:36.116Z,11.00
2018-05-04T23:06:09.981Z,11.00
2018-05-04T23:08:44.664Z,10.90
2018-05-04T23:11:18.416Z,10.90
2018-05-04T23:14:08.214Z,10.80
2018-05-04T23:16:43.170Z,10.80
2018-05-04T23:19:17.544Z,10.70
2018-05-04T23:21:52.957Z,10.70
2018-05-04T23:24:32.022Z,10.60
2018-05-04T23:27:07.576Z,10.60
2018-05-04T23:29:41.203Z,10.50
2018-05-04T23:32:15.699Z,10.40
2018-05-04T23:34:49.493Z,10.40
2018-05-04T23:37:23.182Z,10.30
2018-05-04T23:39:56.936Z,10.30
2018-05-04T23:42:30.890Z,10.30
2018-05-04T23:45:05.011Z,10.30
2018-05-04T23:47:38.743Z,10.20
2018-05-04T23:50:12.595Z,10.20
2018-05-04T23:52:46.253Z,10.20
2018-05-04T23:55:20.055Z,10.20
2018-05-04T23:57:55.638Z,10.10
